Terminal Aerodrome Forecast
Issued by NWS

Home | Current Version | Previous Version | Graphics & Text | Print | Product List | Glossary On
Versions: 1 2 3 4 5 6 7 8 9 10 11 12 13 14 15 16 17 18 19
681
FTUS43 KUNR 282235 AAA
TAFGCC
TAF AMD
KGCC 282235Z 2823/2918 33015KT P6SM OVC025
     FM290600 33005KT P6SM SCT030=

USA.gov is the U.S. government's official web portal to all federal, state and local government web resources and services.